Flight Track Log - Related Links

Times and Time Zones

All times are in EDT time to prevent confusion due to time zone crossing. See the AWE1714 flight status page for this flight to view local times or setup timezone preferences in your user account.

Time Position Orientation Groundspeed Altitude Reporting Facility
EDT Latitude Longitude Course Direction KTS MPH feet Rate Location/Type
Mon 10:59:26 PM 39.8629 -75.2649 251° West 159 183 1,700  Level FlightAware ADS-B (KPHL)
Mon 11:01:26 PM 39.8000 -75.4167 251° West 267 307 4,500 2,032 Climbing Philadelphia TRACON
Mon 11:02:00 PM 40.1401 -75.4900 323° Northwest  Level FlightAware Approximate
Mon 11:02:32 PM 39.8333 -75.5000 298° West 267 307 8,000  Level Philadelphia TRACON
Mon 11:03:00 PM 40.2309 -75.5713 311° West  Level FlightAware Approximate
Mon 11:03:32 PM 39.9167 -75.5167 351° North 289 333 10,600  Level Philadelphia TRACON
Mon 11:04:00 PM 40.3058 -75.6836 311° West  Level FlightAware Approximate
Mon 11:04:32 PM 40.0000 -75.5167 360° North 303 349 12,000  Level Philadelphia TRACON
Mon 11:05:53 PM 40.1025 -75.5417 349° North 301 346 12,000 336 Level New York Center
Mon 11:06:55 PM 40.1958 -75.5561 353° North 301 346 12,800 958 Climbing New York Center
Mon 11:07:52 PM 40.2697 -75.6294 323° Northwest 313 360 13,900 1,000 Climbing New York Center
Mon 11:08:55 PM 40.3325 -75.7264 310° West 355 409 14,800 1,240 Climbing New York Center
Mon 11:09:53 PM 40.4092 -75.8381 312° West 391 450 16,400 1,525 Climbing New York Center
Mon 11:10:53 PM 40.4575 -75.9728 295° West 414 476 17,800 1,488 Climbing New York Center
Mon 11:11:54 PM 40.4789 -76.1436 279° West 414 476 19,400 1,475 Climbing New York Center
Mon 11:12:55 PM 40.5031 -76.2956 282° West 426 490 20,800 1,261 Climbing New York Center
Mon 11:13:53 PM 40.5269 -76.4558 281° West 437 503 21,900 1,059 Climbing New York Center
Mon 11:14:54 PM 40.5522 -76.6164 282° West 447 514 22,900 984 Climbing New York Center
Mon 11:15:55 PM 40.5672 -76.7789 277° West 454 522 23,900 1,000 Climbing New York Center
Mon 11:16:54 PM 40.5814 -76.9469 276° West 454 522 24,900 1,017 Climbing New York Center
Mon 11:17:53 PM 40.5958 -77.1094 277° West 459 528 25,900 1,059 Climbing New York Center
Mon 11:18:53 PM 40.6119 -77.2722 277° West 459 528 27,000 1,032 Climbing New York Center
Mon 11:20:30 PM 40.6344 -77.5300 277° West 443 510 28,600 987 Climbing Cleveland Center
Mon 11:21:31 PM 40.6469 -77.6908 276° West 443 510 29,600 984 Climbing Cleveland Center
Mon 11:22:32 PM 40.6622 -77.8486 277° West 441 507 30,600 1,082 Climbing Cleveland Center
Mon 11:23:33 PM 40.6842 -78.0044 281° West 439 505 31,800 1,230 Climbing Cleveland Center
Mon 11:24:34 PM 40.7056 -78.1578 280° West 429 494 33,100 1,230 Climbing Cleveland Center
Mon 11:25:35 PM 40.7264 -78.3078 280° West 423 487 34,300 1,131 Climbing Cleveland Center
Mon 11:26:36 PM 40.7467 -78.4578 280° West 418 481 35,400 836 Climbing Cleveland Center
Mon 11:27:37 PM 40.7658 -78.6058 280° West 412 474 36,000 298 Climbing Cleveland Center
Mon 11:28:37 PM 40.7869 -78.7606 280° West 421 484 36,000  Level Cleveland Center
Mon 11:29:38 PM 40.8081 -78.9197 280° West 436 502 36,000  Level Cleveland Center
Mon 11:30:39 PM 40.8306 -79.0869 280° West 442 509 36,000  Level Cleveland Center
Mon 11:31:40 PM 40.8514 -79.2483 280° West 445 512 36,000  Level Cleveland Center
Mon 11:32:41 PM 40.8697 -79.4094 279° West 446 513 36,000  Level Cleveland Center
Mon 11:33:42 PM 40.8833 -79.5706 276° West 446 513 36,000  Level Cleveland Center
Mon 11:34:43 PM 40.8983 -79.7322 277° West 445 512 36,000  Level Cleveland Center
Mon 11:35:44 PM 40.9153 -79.9239 277° West 444 511 36,000  Level Cleveland Center
Mon 11:36:44 PM 40.9289 -80.0847 276° West 444 511 36,000  Level Cleveland Center
Mon 11:37:45 PM 40.9431 -80.2453 277° West 444 511 36,000  Level Cleveland Center
Mon 11:38:46 PM 40.9567 -80.4083 276° West 449 517 36,000  Level Cleveland Center
Mon 11:39:47 PM 40.9706 -80.5703 277° West 447 514 36,000  Level Cleveland Center
Mon 11:40:48 PM 40.9833 -80.7328 276° West 446 513 36,000  Level Cleveland Center
Mon 11:41:49 PM 40.9972 -80.8950 277° West 446 513 36,000  Level Cleveland Center
Mon 11:42:49 PM 41.0089 -81.0558 276° West 442 509 36,000  Level Cleveland Center
Mon 11:43:50 PM 41.0214 -81.2175 276° West 441 507 36,000  Level Cleveland Center
Mon 11:44:51 PM 41.0322 -81.3775 275° West 439 505 36,000  Level Cleveland Center
Mon 11:45:52 PM 41.0439 -81.5392 276° West 440 506 36,000  Level Cleveland Center
Mon 11:46:52 PM 41.0575 -81.7328 275° West 440 506 36,000  Level Cleveland Center
Mon 11:47:53 PM 41.0697 -81.8936 276° West 440 506 36,000  Level Cleveland Center
Mon 11:48:54 PM 41.0792 -82.0528 275° West 439 505 36,000  Level Cleveland Center
Mon 11:49:55 PM 41.0906 -82.1917 276° West 439 505 36,000  Level Cleveland Center
Mon 11:50:55 PM 41.1014 -82.3519 275° West 439 505 36,000  Level Cleveland Center
Mon 11:51:56 PM 41.1122 -82.5456 274° West 440 506 36,000  Level Cleveland Center
Mon 11:52:57 PM 41.1228 -82.7000 275° West 440 506 36,000  Level Cleveland Center
Mon 11:53:57 PM 41.1322 -82.8614 274° West 440 506 36,000  Level Cleveland Center
Mon 11:54:58 PM 41.1428 -83.0208 275° West 438 504 36,000  Level Cleveland Center
Mon 11:55:59 PM 41.1522 -83.1842 274° West 440 506 36,000  Level Cleveland Center
Mon 11:56:59 PM 41.1622 -83.3489 275° West 443 510 36,000  Level Cleveland Center
Mon 11:58:00 PM 41.1706 -83.5117 274° West 443 510 36,000  Level Cleveland Center
Mon 11:59:01 PM 41.1789 -83.6739 274° West 443 510 36,000  Level Cleveland Center
Tue 12:00:01 AM 41.1883 -83.8353 274° West 442 509 36,000  Level Cleveland Center
Tue 12:01:02 AM 41.1975 -84.0042 274° West 438 504 36,000  Level Cleveland Center
Tue 12:02:03 AM 41.2056 -84.1683 274° West 443 510 36,000  Level Cleveland Center
Tue 12:03:03 AM 41.2139 -84.3294 274° West 442 509 36,000  Level Cleveland Center
Tue 12:04:04 AM 41.2214 -84.4925 274° West 442 509 36,000  Level Cleveland Center
Tue 12:05:05 AM 41.2292 -84.6558 274° West 442 509 36,000  Level Cleveland Center
Tue 12:05:38 AM 41.2336 -84.7511 274° West 441 507 36,000  Level Chicago Center
Tue 12:06:39 AM 41.2400 -84.9122 273° West 438 504 36,000  Level Chicago Center
Tue 12:07:40 AM 41.2464 -85.0747 273° West 438 504 36,000  Level Chicago Center
Tue 12:08:40 AM 41.2533 -85.2364 273° West 438 504 36,000  Level Chicago Center
Tue 12:09:41 AM 41.2617 -85.4019 274° West 440 506 36,000  Level Chicago Center
Tue 12:10:42 AM 41.2864 -85.5633 282° West 444 511 36,000 -893 Level Chicago Center
Tue 12:11:42 AM 41.3106 -85.7222 281° West 437 503 34,200 -2,777 Descending Chicago Center
Tue 12:12:43 AM 41.3333 -85.8819 281° West 435 501 30,400 -2,628 Descending Chicago Center
Tue 12:13:43 AM 41.3569 -86.0436 281° West 440 506 28,900 -1,983 Descending Chicago Center
Tue 12:14:44 AM 41.3803 -86.2050 281° West 442 509 26,400 -2,557 Descending Chicago Center
Tue 12:15:45 AM 41.4036 -86.3611 281° West 433 498 23,700 -2,628 Descending Chicago Center
Tue 12:16:45 AM 41.4247 -86.5144 280° West 425 489 21,100 -2,430 Descending Chicago Center
Tue 12:17:46 AM 41.4461 -86.6614 281° West 409 471 18,800 -2,430 Descending Chicago Center
Tue 12:18:46 AM 41.4681 -86.8228 280° West 398 458 16,200 -2,331 Descending Chicago Center
Tue 12:19:47 AM 41.4881 -86.9614 281° West 385 443 14,100 -2,083 Descending Chicago Center
Tue 12:20:47 AM 41.5067 -87.0950 281° West 372 428 12,000 -1,537 Descending Chicago Center
Tue 12:21:48 AM 41.5481 -87.2089 296° West 365 420 11,000 -689 Descending Chicago Center
Tue 12:22:49 AM 41.6125 -87.3111 310° West 360 414 10,600 -545 Descending Chicago Center
Tue 12:23:49 AM 41.6750 -87.4094 310° West 354 407 9,900 -992 Descending Chicago Center
Tue 12:24:50 AM 41.7300 -87.4828 315° West 286 329 8,600 -1,240 Descending Chicago Center
Tue 12:25:50 AM 41.8067 -87.5031 349° North 284 327 7,400 -942 Descending Chicago Center
Tue 12:26:51 AM 41.8767 -87.5192 350° North 255 293 6,700 -694 Descending Chicago Center
Tue 12:27:51 AM 41.9281 -87.5408 343° North 211 243 6,000 -900 Descending Chicago Center
Tue 12:28:51 AM 41.9647 -87.5944 313° West 202 232 4,900 -1,041 Descending Chicago Center
Tue 12:29:52 AM 41.9650 -87.6650 270° West 193 222 3,900 -992 Descending Chicago Center
Tue 12:30:52 AM 41.9647 -87.7339 270° West 189 217 2,900 -893 Descending Chicago Center
Tue 12:31:53 AM 41.9656 -87.7969 271° West 178 205 2,100 -744 Descending Chicago Center
Tue 12:32:53 AM 41.9650 -87.8467 269° West 149 171 1,400 -496 Descending Chicago Center
Tue 12:33:54 AM 41.9664 -87.9064 272° West 143 165 1,100 -295 Descending Chicago Center
Tue 12:35:00 AM 41.9793 -87.9074 79° East  Level Estimated

Login

Don't have an account? Register now (free) for customized features, flight alerts, and more!